sensor_id;sensor_type;location;lat;lon;timestamp;temperature;humidity
60848;DHT22;46681;47.696;9.140;2023-04-30T00:00:49;15.70;65.90
60848;DHT22;46681;47.696;9.140;2023-04-30T00:03:15;15.80;66.10
60848;DHT22;46681;47.696;9.140;2023-04-30T00:05:54;15.70;66.10
60848;DHT22;46681;47.696;9.140;2023-04-30T00:08:26;15.70;66.00
60848;DHT22;46681;47.696;9.140;2023-04-30T00:10:53;15.70;66.10
60848;DHT22;46681;47.696;9.140;2023-04-30T00:13:18;15.70;66.20
60848;DHT22;46681;47.696;9.140;2023-04-30T00:15:45;15.60;66.30
60848;DHT22;46681;47.696;9.140;2023-04-30T00:18:21;15.60;66.20
60848;DHT22;46681;47.696;9.140;2023-04-30T00:20:48;15.60;66.20
60848;DHT22;46681;47.696;9.140;2023-04-30T00:23:14;15.60;66.40
60848;DHT22;46681;47.696;9.140;2023-04-30T00:25:43;15.50;66.30
60848;DHT22;46681;47.696;9.140;2023-04-30T00:28:13;15.50;66.50
60848;DHT22;46681;47.696;9.140;2023-04-30T00:30:45;15.50;66.50
60848;DHT22;46681;47.696;9.140;2023-04-30T00:33:12;15.50;66.60
60848;DHT22;46681;47.696;9.140;2023-04-30T00:35:39;15.40;66.50
60848;DHT22;46681;47.696;9.140;2023-04-30T00:38:10;15.40;66.60
60848;DHT22;46681;47.696;9.140;2023-04-30T00:40:45;15.30;66.60
60848;DHT22;46681;47.696;9.140;2023-04-30T00:43:14;15.30;66.70
60848;DHT22;46681;47.696;9.140;2023-04-30T00:45:44;15.30;66.80
60848;DHT22;46681;47.696;9.140;2023-04-30T00:48:15;15.30;66.90
60848;DHT22;46681;47.696;9.140;2023-04-30T00:50:44;15.20;66.70
60848;DHT22;46681;47.696;9.140;2023-04-30T00:53:14;15.20;66.60
60848;DHT22;46681;47.696;9.140;2023-04-30T00:55:49;15.20;66.90
60848;DHT22;46681;47.696;9.140;2023-04-30T00:58:23;15.10;67.00
60848;DHT22;46681;47.696;9.140;2023-04-30T01:00:49;15.10;67.00
60848;DHT22;46681;47.696;9.140;2023-04-30T01:03:16;15.10;66.80
60848;DHT22;46681;47.696;9.140;2023-04-30T01:05:48;15.00;66.90
60848;DHT22;46681;47.696;9.140;2023-04-30T01:08:16;15.00;67.10
60848;DHT22;46681;47.696;9.140;2023-04-30T01:11:02;15.00;67.00
60848;DHT22;46681;47.696;9.140;2023-04-30T01:14:07;14.90;67.10
60848;DHT22;46681;47.696;9.140;2023-04-30T01:16:29;14.90;67.20
60848;DHT22;46681;47.696;9.140;2023-04-30T01:19:04;14.90;67.10
60848;DHT22;46681;47.696;9.140;2023-04-30T01:21:38;14.90;67.30
60848;DHT22;46681;47.696;9.140;2023-04-30T01:29:47;14.80;67.50
60848;DHT22;46681;47.696;9.140;2023-04-30T01:32:15;14.80;67.50
60848;DHT22;46681;47.696;9.140;2023-04-30T01:34:46;14.70;67.20
60848;DHT22;46681;47.696;9.140;2023-04-30T01:42:55;14.70;67.50
60848;DHT22;46681;47.696;9.140;2023-04-30T01:51:40;14.60;67.70
60848;DHT22;46681;47.696;9.140;2023-04-30T01:57:07;14.50;67.80
60848;DHT22;46681;47.696;9.140;2023-04-30T01:59:41;14.50;67.90
60848;DHT22;46681;47.696;9.140;2023-04-30T02:02:09;14.50;68.00
60848;DHT22;46681;47.696;9.140;2023-04-30T02:04:38;14.50;67.80
60848;DHT22;46681;47.696;9.140;2023-04-30T02:07:05;14.40;67.90
60848;DHT22;46681;47.696;9.140;2023-04-30T02:09:31;14.40;67.90
60848;DHT22;46681;47.696;9.140;2023-04-30T02:11:56;14.40;67.90
60848;DHT22;46681;47.696;9.140;2023-04-30T02:14:22;14.40;68.00
60848;DHT22;46681;47.696;9.140;2023-04-30T02:16:47;14.40;67.80
60848;DHT22;46681;47.696;9.140;2023-04-30T02:19:13;14.30;67.90
60848;DHT22;46681;47.696;9.140;2023-04-30T02:21:39;14.30;68.00
60848;DHT22;46681;47.696;9.140;2023-04-30T02:24:04;14.30;68.00
60848;DHT22;46681;47.696;9.140;2023-04-30T02:26:30;14.30;67.90
60848;DHT22;46681;47.696;9.140;2023-04-30T02:28:55;14.30;68.10
60848;DHT22;46681;47.696;9.140;2023-04-30T02:31:23;14.30;68.10
60848;DHT22;46681;47.696;9.140;2023-04-30T02:33:49;14.30;68.10
60848;DHT22;46681;47.696;9.140;2023-04-30T02:36:15;14.30;68.20
60848;DHT22;46681;47.696;9.140;2023-04-30T02:38:41;14.30;68.10
60848;DHT22;46681;47.696;9.140;2023-04-30T02:41:07;14.30;68.20
60848;DHT22;46681;47.696;9.140;2023-04-30T02:43:34;14.20;68.20
60848;DHT22;46681;47.696;9.140;2023-04-30T02:46:00;14.20;68.20
60848;DHT22;46681;47.696;9.140;2023-04-30T02:48:25;14.20;68.20
60848;DHT22;46681;47.696;9.140;2023-04-30T02:50:52;14.20;68.10
60848;DHT22;46681;47.696;9.140;2023-04-30T02:53:18;14.20;68.20
60848;DHT22;46681;47.696;9.140;2023-04-30T02:55:43;14.20;68.10
60848;DHT22;46681;47.696;9.140;2023-04-30T02:58:09;14.20;68.20
60848;DHT22;46681;47.696;9.140;2023-04-30T03:00:35;14.20;68.20
60848;DHT22;46681;47.696;9.140;2023-04-30T03:03:01;14.20;68.50
60848;DHT22;46681;47.696;9.140;2023-04-30T03:05:29;14.20;68.20
60848;DHT22;46681;47.696;9.140;2023-04-30T03:07:56;14.20;68.40
60848;DHT22;46681;47.696;9.140;2023-04-30T03:10:23;14.20;68.30
60848;DHT22;46681;47.696;9.140;2023-04-30T03:12:48;14.20;68.30
60848;DHT22;46681;47.696;9.140;2023-04-30T03:15:14;14.20;68.20
60848;DHT22;46681;47.696;9.140;2023-04-30T03:17:40;14.20;68.20
60848;DHT22;46681;47.696;9.140;2023-04-30T03:20:08;14.20;68.20
60848;DHT22;46681;47.696;9.140;2023-04-30T03:22:34;14.20;68.30
60848;DHT22;46681;47.696;9.140;2023-04-30T03:25:01;14.20;68.40
60848;DHT22;46681;47.696;9.140;2023-04-30T03:27:28;14.20;68.40
60848;DHT22;46681;47.696;9.140;2023-04-30T03:29:55;14.20;68.30
60848;DHT22;46681;47.696;9.140;2023-04-30T03:32:21;14.20;68.20
60848;DHT22;46681;47.696;9.140;2023-04-30T03:34:48;14.20;68.30
60848;DHT22;46681;47.696;9.140;2023-04-30T03:37:14;14.20;68.20
60848;DHT22;46681;47.696;9.140;2023-04-30T03:39:40;14.20;68.40
60848;DHT22;46681;47.696;9.140;2023-04-30T03:42:06;14.20;68.20
60848;DHT22;46681;47.696;9.140;2023-04-30T03:44:33;14.20;68.30
60848;DHT22;46681;47.696;9.140;2023-04-30T03:46:59;14.20;68.20
60848;DHT22;46681;47.696;9.140;2023-04-30T03:49:27;14.20;68.10
60848;DHT22;46681;47.696;9.140;2023-04-30T03:51:55;14.20;67.90
60848;DHT22;46681;47.696;9.140;2023-04-30T03:54:21;14.20;68.00
60848;DHT22;46681;47.696;9.140;2023-04-30T03:56:50;14.20;68.00
60848;DHT22;46681;47.696;9.140;2023-04-30T03:59:18;14.20;68.00
60848;DHT22;46681;47.696;9.140;2023-04-30T04:01:44;14.20;67.90
60848;DHT22;46681;47.696;9.140;2023-04-30T04:04:10;14.10;67.90
60848;DHT22;46681;47.696;9.140;2023-04-30T04:06:35;14.10;67.80
60848;DHT22;46681;47.696;9.140;2023-04-30T04:09:01;14.20;67.90
60848;DHT22;46681;47.696;9.140;2023-04-30T04:11:26;14.20;67.80
60848;DHT22;46681;47.696;9.140;2023-04-30T04:13:52;14.20;67.80
60848;DHT22;46681;47.696;9.140;2023-04-30T04:16:19;14.10;67.80
60848;DHT22;46681;47.696;9.140;2023-04-30T04:18:45;14.10;67.70
60848;DHT22;46681;47.696;9.140;2023-04-30T04:21:11;14.10;67.60
60848;DHT22;46681;47.696;9.140;2023-04-30T04:23:36;14.10;67.60
60848;DHT22;46681;47.696;9.140;2023-04-30T04:26:02;14.10;67.80
60848;DHT22;46681;47.696;9.140;2023-04-30T04:28:28;14.10;67.70
60848;DHT22;46681;47.696;9.140;2023-04-30T04:30:54;14.10;67.70
60848;DHT22;46681;47.696;9.140;2023-04-30T04:33:20;14.10;67.70
60848;DHT22;46681;47.696;9.140;2023-04-30T04:35:45;14.10;67.70
60848;DHT22;46681;47.696;9.140;2023-04-30T04:38:11;14.10;67.50
60848;DHT22;46681;47.696;9.140;2023-04-30T04:40:37;14.10;67.60
60848;DHT22;46681;47.696;9.140;2023-04-30T04:43:04;14.10;67.60
60848;DHT22;46681;47.696;9.140;2023-04-30T04:45:30;14.10;67.50
60848;DHT22;46681;47.696;9.140;2023-04-30T04:47:56;14.10;67.50
60848;DHT22;46681;47.696;9.140;2023-04-30T04:50:22;14.10;67.60
60848;DHT22;46681;47.696;9.140;2023-04-30T04:52:47;14.10;67.50
60848;DHT22;46681;47.696;9.140;2023-04-30T04:55:13;14.20;67.60
60848;DHT22;46681;47.696;9.140;2023-04-30T04:57:38;14.20;67.60
60848;DHT22;46681;47.696;9.140;2023-04-30T05:00:04;14.20;67.50
60848;DHT22;46681;47.696;9.140;2023-04-30T05:02:30;14.20;67.50
60848;DHT22;46681;47.696;9.140;2023-04-30T05:04:55;14.20;67.60
60848;DHT22;46681;47.696;9.140;2023-04-30T05:07:21;14.20;67.50
60848;DHT22;46681;47.696;9.140;2023-04-30T05:09:48;14.20;67.40
60848;DHT22;46681;47.696;9.140;2023-04-30T05:12:14;14.20;67.50
60848;DHT22;46681;47.696;9.140;2023-04-30T05:14:40;14.20;67.50
60848;DHT22;46681;47.696;9.140;2023-04-30T05:17:05;14.20;67.40
60848;DHT22;46681;47.696;9.140;2023-04-30T05:19:31;14.20;67.30
60848;DHT22;46681;47.696;9.140;2023-04-30T05:21:57;14.20;67.40
60848;DHT22;46681;47.696;9.140;2023-04-30T05:24:23;14.20;67.90
60848;DHT22;46681;47.696;9.140;2023-04-30T05:26:48;14.20;67.30
60848;DHT22;46681;47.696;9.140;2023-04-30T05:29:14;14.20;67.40
60848;DHT22;46681;47.696;9.140;2023-04-30T05:31:39;14.20;67.40
60848;DHT22;46681;47.696;9.140;2023-04-30T05:34:05;14.20;67.30
60848;DHT22;46681;47.696;9.140;2023-04-30T05:36:32;14.20;67.30
60848;DHT22;46681;47.696;9.140;2023-04-30T05:38:58;14.20;67.30
60848;DHT22;46681;47.696;9.140;2023-04-30T05:41:26;14.30;67.20
60848;DHT22;46681;47.696;9.140;2023-04-30T05:43:52;14.30;67.20
60848;DHT22;46681;47.696;9.140;2023-04-30T05:46:19;14.30;67.20
60848;DHT22;46681;47.696;9.140;2023-04-30T05:48:46;14.30;67.20
60848;DHT22;46681;47.696;9.140;2023-04-30T05:51:12;14.30;67.20
60848;DHT22;46681;47.696;9.140;2023-04-30T05:53:37;14.30;67.20
60848;DHT22;46681;47.696;9.140;2023-04-30T05:56:04;14.40;67.10
60848;DHT22;46681;47.696;9.140;2023-04-30T05:58:30;14.40;67.10
60848;DHT22;46681;47.696;9.140;2023-04-30T06:00:56;14.40;67.10
60848;DHT22;46681;47.696;9.140;2023-04-30T06:03:22;14.40;67.00
60848;DHT22;46681;47.696;9.140;2023-04-30T06:05:50;14.40;66.90
60848;DHT22;46681;47.696;9.140;2023-04-30T06:08:15;14.50;68.20
60848;DHT22;46681;47.696;9.140;2023-04-30T06:10:41;14.50;67.80
60848;DHT22;46681;47.696;9.140;2023-04-30T06:13:11;14.50;67.20
60848;DHT22;46681;47.696;9.140;2023-04-30T06:15:37;14.50;66.90
60848;DHT22;46681;47.696;9.140;2023-04-30T06:18:03;14.60;67.00
60848;DHT22;46681;47.696;9.140;2023-04-30T06:20:32;14.50;67.00
60848;DHT22;46681;47.696;9.140;2023-04-30T06:22:58;14.60;66.90
60848;DHT22;46681;47.696;9.140;2023-04-30T06:25:26;14.60;66.80
60848;DHT22;46681;47.696;9.140;2023-04-30T06:27:54;14.60;66.90
60848;DHT22;46681;47.696;9.140;2023-04-30T06:30:21;14.60;66.90
60848;DHT22;46681;47.696;9.140;2023-04-30T06:32:46;14.70;66.60
60848;DHT22;46681;47.696;9.140;2023-04-30T06:35:12;14.70;66.50
60848;DHT22;46681;47.696;9.140;2023-04-30T06:37:39;14.80;67.00
60848;DHT22;46681;47.696;9.140;2023-04-30T06:40:05;14.80;66.50
60848;DHT22;46681;47.696;9.140;2023-04-30T06:42:34;14.80;66.80
60848;DHT22;46681;47.696;9.140;2023-04-30T06:45:02;14.90;67.00
60848;DHT22;46681;47.696;9.140;2023-04-30T06:47:30;14.90;66.40
60848;DHT22;46681;47.696;9.140;2023-04-30T06:50:00;14.90;66.20
60848;DHT22;46681;47.696;9.140;2023-04-30T06:52:27;15.00;66.20
60848;DHT22;46681;47.696;9.140;2023-04-30T06:54:54;15.00;66.10
60848;DHT22;46681;47.696;9.140;2023-04-30T06:57:24;15.00;66.10
60848;DHT22;46681;47.696;9.140;2023-04-30T06:59:52;15.00;66.00
60848;DHT22;46681;47.696;9.140;2023-04-30T07:02:18;15.10;65.80
60848;DHT22;46681;47.696;9.140;2023-04-30T07:04:46;15.10;65.70
60848;DHT22;46681;47.696;9.140;2023-04-30T07:07:15;15.20;65.40
60848;DHT22;46681;47.696;9.140;2023-04-30T07:09:43;15.30;65.10
60848;DHT22;46681;47.696;9.140;2023-04-30T07:12:08;15.30;65.10
60848;DHT22;46681;47.696;9.140;2023-04-30T07:14:37;15.40;64.70
60848;DHT22;46681;47.696;9.140;2023-04-30T07:17:03;15.40;64.80
60848;DHT22;46681;47.696;9.140;2023-04-30T07:19:29;15.50;64.60
60848;DHT22;46681;47.696;9.140;2023-04-30T07:21:54;15.60;64.50
60848;DHT22;46681;47.696;9.140;2023-04-30T07:24:20;15.70;64.00
60848;DHT22;46681;47.696;9.140;2023-04-30T07:26:46;15.70;64.30
60848;DHT22;46681;47.696;9.140;2023-04-30T07:29:16;15.80;63.80
60848;DHT22;46681;47.696;9.140;2023-04-30T07:31:42;15.80;63.80
60848;DHT22;46681;47.696;9.140;2023-04-30T07:34:09;15.90;63.50
60848;DHT22;46681;47.696;9.140;2023-04-30T07:36:39;15.90;63.10
60848;DHT22;46681;47.696;9.140;2023-04-30T07:39:06;16.00;63.30
60848;DHT22;46681;47.696;9.140;2023-04-30T07:41:34;16.10;63.00
60848;DHT22;46681;47.696;9.140;2023-04-30T07:44:01;16.10;63.00
60848;DHT22;46681;47.696;9.140;2023-04-30T07:46:33;16.30;62.60
60848;DHT22;46681;47.696;9.140;2023-04-30T07:48:58;16.40;61.70
60848;DHT22;46681;47.696;9.140;2023-04-30T07:51:26;16.50;62.30
60848;DHT22;46681;47.696;9.140;2023-04-30T07:53:53;16.60;61.20
60848;DHT22;46681;47.696;9.140;2023-04-30T07:56:21;16.70;61.00
60848;DHT22;46681;47.696;9.140;2023-04-30T07:58:51;16.80;60.40
60848;DHT22;46681;47.696;9.140;2023-04-30T08:01:17;16.90;60.90
60848;DHT22;46681;47.696;9.140;2023-04-30T08:09:55;17.30;60.00
60848;DHT22;46681;47.696;9.140;2023-04-30T08:12:26;17.40;60.20
60848;DHT22;46681;47.696;9.140;2023-04-30T08:15:07;17.50;60.20
60848;DHT22;46681;47.696;9.140;2023-04-30T08:17:36;17.50;59.60
60848;DHT22;46681;47.696;9.140;2023-04-30T08:20:16;17.60;59.80
60848;DHT22;46681;47.696;9.140;2023-04-30T08:44:51;18.50;58.90
60848;DHT22;46681;47.696;9.140;2023-04-30T09:24:10;19.80;55.00
60848;DHT22;46681;47.696;9.140;2023-04-30T09:26:56;19.90;55.00
60848;DHT22;46681;47.696;9.140;2023-04-30T09:29:47;20.00;55.20
60848;DHT22;46681;47.696;9.140;2023-04-30T09:32:35;20.20;54.40
60848;DHT22;46681;47.696;9.140;2023-04-30T09:45:19;20.60;52.70
60848;DHT22;46681;47.696;9.140;2023-04-30T09:48:04;20.50;53.30
60848;DHT22;46681;47.696;9.140;2023-04-30T09:50:51;20.60;52.80
60848;DHT22;46681;47.696;9.140;2023-04-30T09:53:42;20.70;53.70
60848;DHT22;46681;47.696;9.140;2023-04-30T10:43:20;21.00;48.00
60848;DHT22;46681;47.696;9.140;2023-04-30T10:49:35;21.10;46.80
60848;DHT22;46681;47.696;9.140;2023-04-30T14:03:33;21.90;44.00
60848;DHT22;46681;47.696;9.140;2023-04-30T14:09:38;21.90;43.40
60848;DHT22;46681;47.696;9.140;2023-04-30T14:12:38;21.80;43.50
60848;DHT22;46681;47.696;9.140;2023-04-30T14:15:32;21.70;44.30
60848;DHT22;46681;47.696;9.140;2023-04-30T14:21:39;21.60;44.50
60848;DHT22;46681;47.696;9.140;2023-04-30T14:24:43;21.50;43.60
60848;DHT22;46681;47.696;9.140;2023-04-30T14:30:33;21.40;44.10
60848;DHT22;46681;47.696;9.140;2023-04-30T14:33:20;21.30;44.10
60848;DHT22;46681;47.696;9.140;2023-04-30T14:36:13;21.20;44.10
60848;DHT22;46681;47.696;9.140;2023-04-30T14:42:31;21.10;44.70
60848;DHT22;46681;47.696;9.140;2023-04-30T14:54:22;20.80;45.20
60848;DHT22;46681;47.696;9.140;2023-04-30T15:00:16;20.20;44.20
60848;DHT22;46681;47.696;9.140;2023-04-30T15:05:56;19.80;45.70
60848;DHT22;46681;47.696;9.140;2023-04-30T15:08:51;19.90;46.60
60848;DHT22;46681;47.696;9.140;2023-04-30T15:11:21;20.00;46.70
60848;DHT22;46681;47.696;9.140;2023-04-30T15:14:03;20.00;46.70
60848;DHT22;46681;47.696;9.140;2023-04-30T15:16:41;20.10;46.30
60848;DHT22;46681;47.696;9.140;2023-04-30T15:19:21;20.00;46.40
60848;DHT22;46681;47.696;9.140;2023-04-30T15:21:47;20.00;46.40
60848;DHT22;46681;47.696;9.140;2023-04-30T15:24:31;20.00;47.10
60848;DHT22;46681;47.696;9.140;2023-04-30T15:27:15;19.90;47.10
60848;DHT22;46681;47.696;9.140;2023-04-30T15:29:52;19.90;46.80
60848;DHT22;46681;47.696;9.140;2023-04-30T15:32:32;19.90;46.90
60848;DHT22;46681;47.696;9.140;2023-04-30T15:35:13;19.90;46.80
60848;DHT22;46681;47.696;9.140;2023-04-30T15:37:57;19.80;47.00
60848;DHT22;46681;47.696;9.140;2023-04-30T15:40:27;19.80;47.70
60848;DHT22;46681;47.696;9.140;2023-04-30T15:43:05;19.70;46.80
60848;DHT22;46681;47.696;9.140;2023-04-30T15:45:33;19.70;46.70
60848;DHT22;46681;47.696;9.140;2023-04-30T15:48:05;19.60;48.00
60848;DHT22;46681;47.696;9.140;2023-04-30T15:50:42;19.60;47.10
60848;DHT22;46681;47.696;9.140;2023-04-30T15:53:28;19.60;47.90
60848;DHT22;46681;47.696;9.140;2023-04-30T15:56:07;19.60;47.10
60848;DHT22;46681;47.696;9.140;2023-04-30T15:58:37;19.50;48.40
60848;DHT22;46681;47.696;9.140;2023-04-30T16:01:13;19.40;47.40
60848;DHT22;46681;47.696;9.140;2023-04-30T16:03:43;19.30;47.00
60848;DHT22;46681;47.696;9.140;2023-04-30T16:06:09;19.30;47.50
60848;DHT22;46681;47.696;9.140;2023-04-30T16:08:36;19.30;47.80
60848;DHT22;46681;47.696;9.140;2023-04-30T16:11:07;19.30;48.80
60848;DHT22;46681;47.696;9.140;2023-04-30T16:13:49;19.20;47.70
60848;DHT22;46681;47.696;9.140;2023-04-30T16:16:32;19.10;47.10
60848;DHT22;46681;47.696;9.140;2023-04-30T16:19:23;19.10;48.00
60848;DHT22;46681;47.696;9.140;2023-04-30T16:22:02;19.00;47.60
60848;DHT22;46681;47.696;9.140;2023-04-30T16:24:34;18.90;47.40
60848;DHT22;46681;47.696;9.140;2023-04-30T16:27:01;18.80;48.70
60848;DHT22;46681;47.696;9.140;2023-04-30T16:29:55;18.80;48.40
60848;DHT22;46681;47.696;9.140;2023-04-30T16:32:43;18.90;48.30
60848;DHT22;46681;47.696;9.140;2023-04-30T16:35:19;18.80;48.60
60848;DHT22;46681;47.696;9.140;2023-04-30T16:41:20;18.80;49.00
60848;DHT22;46681;47.696;9.140;2023-04-30T16:43:49;18.70;48.90
60848;DHT22;46681;47.696;9.140;2023-04-30T16:46:25;18.70;49.30
60848;DHT22;46681;47.696;9.140;2023-04-30T16:48:55;18.70;49.20
60848;DHT22;46681;47.696;9.140;2023-04-30T16:51:29;18.70;49.70
60848;DHT22;46681;47.696;9.140;2023-04-30T16:54:00;18.60;48.60
60848;DHT22;46681;47.696;9.140;2023-04-30T16:56:29;18.60;49.70
60848;DHT22;46681;47.696;9.140;2023-04-30T16:58:58;18.50;49.70
60848;DHT22;46681;47.696;9.140;2023-04-30T17:01:35;18.50;49.50
60848;DHT22;46681;47.696;9.140;2023-04-30T17:04:17;18.50;48.90
60848;DHT22;46681;47.696;9.140;2023-04-30T17:06:48;18.40;49.50
60848;DHT22;46681;47.696;9.140;2023-04-30T17:09:21;18.40;50.00
60848;DHT22;46681;47.696;9.140;2023-04-30T17:11:56;18.40;49.90
60848;DHT22;46681;47.696;9.140;2023-04-30T17:14:41;18.40;49.80
60848;DHT22;46681;47.696;9.140;2023-04-30T17:17:21;18.30;49.90
60848;DHT22;46681;47.696;9.140;2023-04-30T17:19:49;18.30;50.30
60848;DHT22;46681;47.696;9.140;2023-04-30T17:22:22;18.20;50.20
60848;DHT22;46681;47.696;9.140;2023-04-30T17:24:51;18.20;50.30
60848;DHT22;46681;47.696;9.140;2023-04-30T17:27:17;18.20;49.50
60848;DHT22;46681;47.696;9.140;2023-04-30T17:29:50;18.10;49.40
60848;DHT22;46681;47.696;9.140;2023-04-30T17:32:24;18.10;50.30
60848;DHT22;46681;47.696;9.140;2023-04-30T17:34:58;18.10;50.30
60848;DHT22;46681;47.696;9.140;2023-04-30T17:37:25;18.00;50.30
60848;DHT22;46681;47.696;9.140;2023-04-30T17:39:53;18.00;50.40
60848;DHT22;46681;47.696;9.140;2023-04-30T17:42:19;17.90;50.00
60848;DHT22;46681;47.696;9.140;2023-04-30T17:44:58;17.90;49.80
60848;DHT22;46681;47.696;9.140;2023-04-30T17:47:30;17.90;49.80
60848;DHT22;46681;47.696;9.140;2023-04-30T17:49:56;17.80;50.50
60848;DHT22;46681;47.696;9.140;2023-04-30T17:52:22;17.80;50.40
60848;DHT22;46681;47.696;9.140;2023-04-30T17:54:55;17.80;49.70
60848;DHT22;46681;47.696;9.140;2023-04-30T17:57:25;17.80;51.30
60848;DHT22;46681;47.696;9.140;2023-04-30T17:59:54;17.90;51.20
60848;DHT22;46681;47.696;9.140;2023-04-30T18:02:23;17.80;51.20
60848;DHT22;46681;47.696;9.140;2023-04-30T18:04:50;17.70;51.10
60848;DHT22;46681;47.696;9.140;2023-04-30T18:07:24;17.70;51.10
60848;DHT22;46681;47.696;9.140;2023-04-30T18:09:53;17.70;50.70
60848;DHT22;46681;47.696;9.140;2023-04-30T18:12:20;17.70;53.00
60848;DHT22;46681;47.696;9.140;2023-04-30T18:14:51;17.70;53.70
60848;DHT22;46681;47.696;9.140;2023-04-30T18:17:18;17.70;52.70
60848;DHT22;46681;47.696;9.140;2023-04-30T18:19:45;17.70;52.60
60848;DHT22;46681;47.696;9.140;2023-04-30T18:22:11;17.70;52.30
60848;DHT22;46681;47.696;9.140;2023-04-30T18:24:38;17.70;52.40
60848;DHT22;46681;47.696;9.140;2023-04-30T18:27:09;17.70;52.60
60848;DHT22;46681;47.696;9.140;2023-04-30T18:29:39;17.70;52.80
60848;DHT22;46681;47.696;9.140;2023-04-30T18:32:08;17.70;53.00
60848;DHT22;46681;47.696;9.140;2023-04-30T18:34:36;17.70;53.30
60848;DHT22;46681;47.696;9.140;2023-04-30T18:37:09;17.70;53.50
60848;DHT22;46681;47.696;9.140;2023-04-30T18:39:39;17.70;53.90
60848;DHT22;46681;47.696;9.140;2023-04-30T18:42:06;17.60;53.90
60848;DHT22;46681;47.696;9.140;2023-04-30T18:44:31;17.60;54.20
60848;DHT22;46681;47.696;9.140;2023-04-30T18:47:00;17.60;54.00
60848;DHT22;46681;47.696;9.140;2023-04-30T18:49:31;17.50;54.40
60848;DHT22;46681;47.696;9.140;2023-04-30T18:52:00;17.60;54.70
60848;DHT22;46681;47.696;9.140;2023-04-30T18:54:27;17.50;54.80
60848;DHT22;46681;47.696;9.140;2023-04-30T18:56:53;17.50;55.30
60848;DHT22;46681;47.696;9.140;2023-04-30T18:59:20;17.50;55.20
60848;DHT22;46681;47.696;9.140;2023-04-30T19:01:47;17.50;55.60
60848;DHT22;46681;47.696;9.140;2023-04-30T19:04:17;17.50;55.70
60848;DHT22;46681;47.696;9.140;2023-04-30T19:06:51;17.40;55.80
60848;DHT22;46681;47.696;9.140;2023-04-30T19:09:19;17.40;56.10
60848;DHT22;46681;47.696;9.140;2023-04-30T19:11:45;17.40;56.10
60848;DHT22;46681;47.696;9.140;2023-04-30T19:14:13;17.40;56.30
60848;DHT22;46681;47.696;9.140;2023-04-30T19:16:39;17.40;57.10
60848;DHT22;46681;47.696;9.140;2023-04-30T19:19:05;17.40;56.90
60848;DHT22;46681;47.696;9.140;2023-04-30T19:21:31;17.30;56.90
60848;DHT22;46681;47.696;9.140;2023-04-30T19:23:57;17.40;57.10
60848;DHT22;46681;47.696;9.140;2023-04-30T19:26:23;17.30;56.90
60848;DHT22;46681;47.696;9.140;2023-04-30T19:28:48;17.30;57.20
60848;DHT22;46681;47.696;9.140;2023-04-30T19:31:22;17.30;57.50
60848;DHT22;46681;47.696;9.140;2023-04-30T19:33:51;17.30;57.50
60848;DHT22;46681;47.696;9.140;2023-04-30T19:36:18;17.20;57.60
60848;DHT22;46681;47.696;9.140;2023-04-30T19:38:46;17.20;57.80
60848;DHT22;46681;47.696;9.140;2023-04-30T19:41:17;17.20;57.80
60848;DHT22;46681;47.696;9.140;2023-04-30T19:43:42;17.20;57.90
60848;DHT22;46681;47.696;9.140;2023-04-30T19:46:08;17.20;58.00
60848;DHT22;46681;47.696;9.140;2023-04-30T19:48:34;17.10;58.00
60848;DHT22;46681;47.696;9.140;2023-04-30T19:51:07;17.10;58.20
60848;DHT22;46681;47.696;9.140;2023-04-30T19:53:37;17.10;58.40
60848;DHT22;46681;47.696;9.140;2023-04-30T19:56:07;17.10;58.50
60848;DHT22;46681;47.696;9.140;2023-04-30T19:58:37;17.10;58.40
60848;DHT22;46681;47.696;9.140;2023-04-30T20:01:03;17.00;58.60
60848;DHT22;46681;47.696;9.140;2023-04-30T20:03:28;17.00;58.70
60848;DHT22;46681;47.696;9.140;2023-04-30T20:05:57;17.00;58.60
60848;DHT22;46681;47.696;9.140;2023-04-30T20:08:27;17.00;59.10
60848;DHT22;46681;47.696;9.140;2023-04-30T20:10:53;16.90;58.90
60848;DHT22;46681;47.696;9.140;2023-04-30T20:13:20;16.90;59.00
60848;DHT22;46681;47.696;9.140;2023-04-30T20:15:48;16.90;59.30
60848;DHT22;46681;47.696;9.140;2023-04-30T20:18:13;16.90;59.30
60848;DHT22;46681;47.696;9.140;2023-04-30T20:20:40;16.80;59.70
60848;DHT22;46681;47.696;9.140;2023-04-30T20:23:13;16.80;59.30
60848;DHT22;46681;47.696;9.140;2023-04-30T20:25:39;16.80;59.80
60848;DHT22;46681;47.696;9.140;2023-04-30T20:28:05;16.80;59.60
60848;DHT22;46681;47.696;9.140;2023-04-30T20:30:43;16.80;59.60
60848;DHT22;46681;47.696;9.140;2023-04-30T20:33:13;16.80;60.10
60848;DHT22;46681;47.696;9.140;2023-04-30T20:35:42;16.70;60.10
60848;DHT22;46681;47.696;9.140;2023-04-30T20:38:09;16.70;59.80
60848;DHT22;46681;47.696;9.140;2023-04-30T20:40:38;16.70;59.80
60848;DHT22;46681;47.696;9.140;2023-04-30T20:43:07;16.60;60.20
60848;DHT22;46681;47.696;9.140;2023-04-30T20:45:38;16.60;60.30
60848;DHT22;46681;47.696;9.140;2023-04-30T20:48:05;16.60;60.30
60848;DHT22;46681;47.696;9.140;2023-04-30T20:50:31;16.60;60.10
60848;DHT22;46681;47.696;9.140;2023-04-30T20:52:59;16.60;60.00
60848;DHT22;46681;47.696;9.140;2023-04-30T20:55:25;16.60;60.30
60848;DHT22;46681;47.696;9.140;2023-04-30T20:57:50;16.50;60.30
60848;DHT22;46681;47.696;9.140;2023-04-30T21:00:16;16.50;60.30
60848;DHT22;46681;47.696;9.140;2023-04-30T21:02:42;16.50;60.20
60848;DHT22;46681;47.696;9.140;2023-04-30T21:05:08;16.50;60.70
60848;DHT22;46681;47.696;9.140;2023-04-30T21:07:34;16.50;60.90
60848;DHT22;46681;47.696;9.140;2023-04-30T21:10:03;16.40;60.80
60848;DHT22;46681;47.696;9.140;2023-04-30T21:12:28;16.40;60.90
60848;DHT22;46681;47.696;9.140;2023-04-30T21:14:57;16.40;61.00
60848;DHT22;46681;47.696;9.140;2023-04-30T21:17:22;16.40;60.90
60848;DHT22;46681;47.696;9.140;2023-04-30T21:19:49;16.40;61.10
60848;DHT22;46681;47.696;9.140;2023-04-30T21:22:15;16.40;61.20
60848;DHT22;46681;47.696;9.140;2023-04-30T21:24:41;16.30;61.70
60848;DHT22;46681;47.696;9.140;2023-04-30T21:27:07;16.30;61.20
60848;DHT22;46681;47.696;9.140;2023-04-30T21:29:33;16.30;61.10
60848;DHT22;46681;47.696;9.140;2023-04-30T21:32:00;16.30;61.50
60848;DHT22;46681;47.696;9.140;2023-04-30T21:34:30;16.30;61.50
60848;DHT22;46681;47.696;9.140;2023-04-30T21:36:57;16.30;61.60
60848;DHT22;46681;47.696;9.140;2023-04-30T21:39:23;16.20;61.80
60848;DHT22;46681;47.696;9.140;2023-04-30T21:41:49;16.20;61.80
60848;DHT22;46681;47.696;9.140;2023-04-30T21:44:15;16.20;62.00
60848;DHT22;46681;47.696;9.140;2023-04-30T21:46:40;16.20;61.90
60848;DHT22;46681;47.696;9.140;2023-04-30T21:49:06;16.20;61.90
60848;DHT22;46681;47.696;9.140;2023-04-30T21:51:32;16.20;62.10
60848;DHT22;46681;47.696;9.140;2023-04-30T21:53:57;16.10;62.30
60848;DHT22;46681;47.696;9.140;2023-04-30T21:56:23;16.10;62.30